sensor_id;sensor_type;location;lat;lon;timestamp;P1;durP1;ratioP1;P2;durP2;ratioP2
75413;SDS011;64758;52.122;5.404;2023-05-14T00:01:27;15.15;;;10.30;;
75413;SDS011;64758;52.122;5.404;2023-05-14T00:03:54;19.90;;;10.35;;
75413;SDS011;64758;52.122;5.404;2023-05-14T00:06:20;14.07;;;10.50;;
75413;SDS011;64758;52.122;5.404;2023-05-14T00:08:47;16.70;;;9.77;;
75413;SDS011;64758;52.122;5.404;2023-05-14T00:11:13;17.42;;;10.73;;
75413;SDS011;64758;52.122;5.404;2023-05-14T00:13:41;13.45;;;9.55;;
75413;SDS011;64758;52.122;5.404;2023-05-14T00:16:08;16.90;;;10.60;;
75413;SDS011;64758;52.122;5.404;2023-05-14T00:18:34;17.45;;;10.15;;
75413;SDS011;64758;52.122;5.404;2023-05-14T00:21:01;17.77;;;10.70;;
75413;SDS011;64758;52.122;5.404;2023-05-14T00:23:28;14.93;;;9.93;;
75413;SDS011;64758;52.122;5.404;2023-05-14T00:25:54;15.02;;;10.52;;
75413;SDS011;64758;52.122;5.404;2023-05-14T00:28:21;15.43;;;10.55;;
75413;SDS011;64758;52.122;5.404;2023-05-14T00:30:47;14.93;;;10.02;;
75413;SDS011;64758;52.122;5.404;2023-05-14T00:33:14;13.53;;;10.37;;
75413;SDS011;64758;52.122;5.404;2023-05-14T00:35:41;18.48;;;10.32;;
75413;SDS011;64758;52.122;5.404;2023-05-14T00:38:07;15.88;;;10.48;;
75413;SDS011;64758;52.122;5.404;2023-05-14T00:40:34;15.90;;;9.45;;
75413;SDS011;64758;52.122;5.404;2023-05-14T00:43:00;16.90;;;10.20;;
75413;SDS011;64758;52.122;5.404;2023-05-14T00:45:27;14.53;;;9.73;;
75413;SDS011;64758;52.122;5.404;2023-05-14T00:47:53;15.00;;;9.68;;
75413;SDS011;64758;52.122;5.404;2023-05-14T00:50:20;15.55;;;10.18;;
75413;SDS011;64758;52.122;5.404;2023-05-14T00:52:48;14.73;;;9.65;;
75413;SDS011;64758;52.122;5.404;2023-05-14T00:55:15;12.15;;;9.48;;
75413;SDS011;64758;52.122;5.404;2023-05-14T00:57:42;15.47;;;9.77;;
75413;SDS011;64758;52.122;5.404;2023-05-14T01:00:09;15.77;;;9.20;;
75413;SDS011;64758;52.122;5.404;2023-05-14T01:02:36;13.82;;;9.02;;
75413;SDS011;64758;52.122;5.404;2023-05-14T01:05:02;15.27;;;9.70;;
75413;SDS011;64758;52.122;5.404;2023-05-14T01:07:35;17.40;;;9.55;;
75413;SDS011;64758;52.122;5.404;2023-05-14T01:10:14;13.97;;;8.80;;
75413;SDS011;64758;52.122;5.404;2023-05-14T01:15:25;15.18;;;10.15;;
75413;SDS011;64758;52.122;5.404;2023-05-14T01:17:58;13.30;;;9.38;;
75413;SDS011;64758;52.122;5.404;2023-05-14T01:20:26;13.88;;;8.77;;
75413;SDS011;64758;52.122;5.404;2023-05-14T01:22:53;16.07;;;9.37;;
75413;SDS011;64758;52.122;5.404;2023-05-14T01:25:19;13.40;;;8.90;;
75413;SDS011;64758;52.122;5.404;2023-05-14T01:27:58;13.43;;;9.15;;
75413;SDS011;64758;52.122;5.404;2023-05-14T01:30:33;15.45;;;9.68;;
75413;SDS011;64758;52.122;5.404;2023-05-14T01:33:05;13.50;;;9.68;;
75413;SDS011;64758;52.122;5.404;2023-05-14T01:35:38;14.23;;;9.67;;
75413;SDS011;64758;52.122;5.404;2023-05-14T01:38:06;18.17;;;9.70;;
75413;SDS011;64758;52.122;5.404;2023-05-14T01:40:36;15.00;;;9.35;;
75413;SDS011;64758;52.122;5.404;2023-05-14T01:43:03;18.02;;;9.07;;
75413;SDS011;64758;52.122;5.404;2023-05-14T01:45:30;18.85;;;9.77;;
75413;SDS011;64758;52.122;5.404;2023-05-14T01:48:00;16.57;;;9.03;;
75413;SDS011;64758;52.122;5.404;2023-05-14T01:50:26;12.63;;;9.35;;
75413;SDS011;64758;52.122;5.404;2023-05-14T01:52:53;15.02;;;9.15;;
75413;SDS011;64758;52.122;5.404;2023-05-14T01:55:22;14.88;;;9.57;;
75413;SDS011;64758;52.122;5.404;2023-05-14T01:57:52;13.95;;;9.45;;
75413;SDS011;64758;52.122;5.404;2023-05-14T02:00:20;14.87;;;9.80;;
75413;SDS011;64758;52.122;5.404;2023-05-14T02:02:49;18.23;;;9.10;;
75413;SDS011;64758;52.122;5.404;2023-05-14T02:05:16;15.10;;;9.48;;
75413;SDS011;64758;52.122;5.404;2023-05-14T02:07:42;19.60;;;9.90;;
75413;SDS011;64758;52.122;5.404;2023-05-14T02:10:09;15.70;;;9.52;;
75413;SDS011;64758;52.122;5.404;2023-05-14T02:12:36;12.80;;;9.20;;
75413;SDS011;64758;52.122;5.404;2023-05-14T02:15:03;16.90;;;9.57;;
75413;SDS011;64758;52.122;5.404;2023-05-14T02:17:29;15.18;;;10.25;;
75413;SDS011;64758;52.122;5.404;2023-05-14T02:19:56;13.18;;;8.77;;
75413;SDS011;64758;52.122;5.404;2023-05-14T02:22:23;16.20;;;9.00;;
75413;SDS011;64758;52.122;5.404;2023-05-14T02:24:49;14.50;;;8.93;;
75413;SDS011;64758;52.122;5.404;2023-05-14T02:27:16;13.57;;;9.07;;
75413;SDS011;64758;52.122;5.404;2023-05-14T02:29:43;15.38;;;9.18;;
75413;SDS011;64758;52.122;5.404;2023-05-14T02:32:09;16.05;;;9.07;;
75413;SDS011;64758;52.122;5.404;2023-05-14T02:34:36;15.35;;;9.60;;
75413;SDS011;64758;52.122;5.404;2023-05-14T02:37:03;15.67;;;9.60;;
75413;SDS011;64758;52.122;5.404;2023-05-14T02:39:30;12.85;;;8.98;;
75413;SDS011;64758;52.122;5.404;2023-05-14T02:41:56;16.25;;;9.75;;
75413;SDS011;64758;52.122;5.404;2023-05-14T02:44:23;19.05;;;10.32;;
75413;SDS011;64758;52.122;5.404;2023-05-14T02:46:50;14.32;;;9.98;;
75413;SDS011;64758;52.122;5.404;2023-05-14T02:49:16;13.93;;;9.17;;
75413;SDS011;64758;52.122;5.404;2023-05-14T02:51:43;15.98;;;9.43;;
75413;SDS011;64758;52.122;5.404;2023-05-14T02:54:09;12.85;;;9.02;;
75413;SDS011;64758;52.122;5.404;2023-05-14T02:56:36;15.82;;;8.70;;
75413;SDS011;64758;52.122;5.404;2023-05-14T02:59:02;15.55;;;9.45;;
75413;SDS011;64758;52.122;5.404;2023-05-14T03:01:30;15.87;;;9.40;;
75413;SDS011;64758;52.122;5.404;2023-05-14T03:03:56;14.23;;;9.98;;
75413;SDS011;64758;52.122;5.404;2023-05-14T03:06:23;15.57;;;9.25;;
75413;SDS011;64758;52.122;5.404;2023-05-14T03:08:49;14.93;;;9.27;;
75413;SDS011;64758;52.122;5.404;2023-05-14T03:11:16;17.42;;;9.75;;
75413;SDS011;64758;52.122;5.404;2023-05-14T03:13:43;17.07;;;9.30;;
75413;SDS011;64758;52.122;5.404;2023-05-14T03:16:09;17.27;;;9.52;;
75413;SDS011;64758;52.122;5.404;2023-05-14T03:18:36;14.50;;;9.50;;
75413;SDS011;64758;52.122;5.404;2023-05-14T03:21:03;14.70;;;9.07;;
75413;SDS011;64758;52.122;5.404;2023-05-14T03:23:29;16.05;;;9.93;;
75413;SDS011;64758;52.122;5.404;2023-05-14T03:25:57;15.20;;;9.00;;
75413;SDS011;64758;52.122;5.404;2023-05-14T03:28:23;20.45;;;9.85;;
75413;SDS011;64758;52.122;5.404;2023-05-14T03:30:51;13.73;;;9.70;;
75413;SDS011;64758;52.122;5.404;2023-05-14T03:33:17;17.70;;;8.90;;
75413;SDS011;64758;52.122;5.404;2023-05-14T03:35:44;16.27;;;9.48;;
75413;SDS011;64758;52.122;5.404;2023-05-14T03:38:10;15.40;;;9.43;;
75413;SDS011;64758;52.122;5.404;2023-05-14T03:40:37;19.38;;;9.50;;
75413;SDS011;64758;52.122;5.404;2023-05-14T03:43:03;17.35;;;9.68;;
75413;SDS011;64758;52.122;5.404;2023-05-14T03:45:30;14.60;;;9.35;;
75413;SDS011;64758;52.122;5.404;2023-05-14T03:47:57;15.95;;;9.38;;
75413;SDS011;64758;52.122;5.404;2023-05-14T03:50:24;19.30;;;9.37;;
75413;SDS011;64758;52.122;5.404;2023-05-14T03:52:51;14.40;;;9.20;;
75413;SDS011;64758;52.122;5.404;2023-05-14T03:55:20;14.15;;;9.73;;
75413;SDS011;64758;52.122;5.404;2023-05-14T03:57:47;16.95;;;9.77;;
75413;SDS011;64758;52.122;5.404;2023-05-14T04:00:14;14.23;;;9.73;;
75413;SDS011;64758;52.122;5.404;2023-05-14T04:02:41;16.00;;;8.90;;
75413;SDS011;64758;52.122;5.404;2023-05-14T04:05:08;17.42;;;8.70;;
75413;SDS011;64758;52.122;5.404;2023-05-14T04:07:34;14.27;;;8.90;;
75413;SDS011;64758;52.122;5.404;2023-05-14T04:10:01;19.45;;;9.65;;
75413;SDS011;64758;52.122;5.404;2023-05-14T04:12:30;15.35;;;9.32;;
75413;SDS011;64758;52.122;5.404;2023-05-14T04:14:57;16.43;;;9.03;;
75413;SDS011;64758;52.122;5.404;2023-05-14T04:17:23;16.23;;;8.40;;
75413;SDS011;64758;52.122;5.404;2023-05-14T04:19:50;15.85;;;9.43;;
75413;SDS011;64758;52.122;5.404;2023-05-14T04:22:17;18.85;;;9.25;;
75413;SDS011;64758;52.122;5.404;2023-05-14T04:24:43;17.52;;;9.05;;
75413;SDS011;64758;52.122;5.404;2023-05-14T04:27:10;15.87;;;8.90;;
75413;SDS011;64758;52.122;5.404;2023-05-14T04:29:36;14.43;;;8.85;;
75413;SDS011;64758;52.122;5.404;2023-05-14T04:32:03;13.90;;;8.38;;
75413;SDS011;64758;52.122;5.404;2023-05-14T04:34:30;12.98;;;7.93;;
75413;SDS011;64758;52.122;5.404;2023-05-14T04:36:56;14.48;;;8.20;;
75413;SDS011;64758;52.122;5.404;2023-05-14T04:39:23;13.23;;;8.47;;
75413;SDS011;64758;52.122;5.404;2023-05-14T04:41:49;10.77;;;7.90;;
75413;SDS011;64758;52.122;5.404;2023-05-14T04:44:16;13.00;;;8.50;;
75413;SDS011;64758;52.122;5.404;2023-05-14T04:46:42;13.43;;;8.20;;
75413;SDS011;64758;52.122;5.404;2023-05-14T04:49:09;14.25;;;8.15;;
75413;SDS011;64758;52.122;5.404;2023-05-14T04:51:35;14.00;;;8.27;;
75413;SDS011;64758;52.122;5.404;2023-05-14T04:54:02;13.18;;;8.43;;
75413;SDS011;64758;52.122;5.404;2023-05-14T04:56:29;13.88;;;8.20;;
75413;SDS011;64758;52.122;5.404;2023-05-14T04:58:55;15.05;;;7.63;;
75413;SDS011;64758;52.122;5.404;2023-05-14T05:01:22;14.18;;;8.02;;
75413;SDS011;64758;52.122;5.404;2023-05-14T05:03:48;14.80;;;7.30;;
75413;SDS011;64758;52.122;5.404;2023-05-14T05:06:16;14.70;;;8.10;;
75413;SDS011;64758;52.122;5.404;2023-05-14T05:08:42;12.82;;;8.38;;
75413;SDS011;64758;52.122;5.404;2023-05-14T05:11:09;13.25;;;7.68;;
75413;SDS011;64758;52.122;5.404;2023-05-14T05:13:35;13.32;;;7.57;;
75413;SDS011;64758;52.122;5.404;2023-05-14T05:16:01;13.10;;;7.87;;
75413;SDS011;64758;52.122;5.404;2023-05-14T05:18:28;14.30;;;7.88;;
75413;SDS011;64758;52.122;5.404;2023-05-14T05:20:55;14.02;;;7.95;;
75413;SDS011;64758;52.122;5.404;2023-05-14T05:23:21;15.20;;;7.50;;
75413;SDS011;64758;52.122;5.404;2023-05-14T05:25:48;14.13;;;7.88;;
75413;SDS011;64758;52.122;5.404;2023-05-14T05:28:15;17.13;;;8.27;;
75413;SDS011;64758;52.122;5.404;2023-05-14T05:30:42;12.82;;;7.95;;
75413;SDS011;64758;52.122;5.404;2023-05-14T05:33:10;12.23;;;7.20;;
75413;SDS011;64758;52.122;5.404;2023-05-14T05:35:37;12.60;;;7.18;;
75413;SDS011;64758;52.122;5.404;2023-05-14T05:38:04;13.52;;;8.05;;
75413;SDS011;64758;52.122;5.404;2023-05-14T05:40:30;12.27;;;7.33;;
75413;SDS011;64758;52.122;5.404;2023-05-14T05:42:57;12.07;;;8.07;;
75413;SDS011;64758;52.122;5.404;2023-05-14T05:45:23;11.65;;;7.35;;
75413;SDS011;64758;52.122;5.404;2023-05-14T05:47:50;12.88;;;7.97;;
75413;SDS011;64758;52.122;5.404;2023-05-14T05:50:16;13.35;;;7.50;;
75413;SDS011;64758;52.122;5.404;2023-05-14T05:52:45;11.37;;;7.00;;
75413;SDS011;64758;52.122;5.404;2023-05-14T05:55:11;17.67;;;7.82;;
75413;SDS011;64758;52.122;5.404;2023-05-14T05:57:38;12.07;;;7.53;;
75413;SDS011;64758;52.122;5.404;2023-05-14T06:00:05;9.23;;;7.07;;
75413;SDS011;64758;52.122;5.404;2023-05-14T06:02:39;11.63;;;7.15;;
75413;SDS011;64758;52.122;5.404;2023-05-14T06:05:06;10.37;;;7.03;;
75413;SDS011;64758;52.122;5.404;2023-05-14T06:07:34;10.02;;;7.03;;
75413;SDS011;64758;52.122;5.404;2023-05-14T06:10:01;15.65;;;7.50;;
75413;SDS011;64758;52.122;5.404;2023-05-14T06:12:28;11.77;;;7.60;;
75413;SDS011;64758;52.122;5.404;2023-05-14T06:14:54;11.73;;;6.90;;
75413;SDS011;64758;52.122;5.404;2023-05-14T06:17:23;11.97;;;6.70;;
75413;SDS011;64758;52.122;5.404;2023-05-14T06:19:51;11.75;;;7.10;;
75413;SDS011;64758;52.122;5.404;2023-05-14T06:22:18;11.00;;;7.90;;
75413;SDS011;64758;52.122;5.404;2023-05-14T06:24:44;11.20;;;7.75;;
75413;SDS011;64758;52.122;5.404;2023-05-14T06:27:11;11.23;;;7.78;;
75413;SDS011;64758;52.122;5.404;2023-05-14T06:29:37;11.13;;;7.23;;
75413;SDS011;64758;52.122;5.404;2023-05-14T06:32:04;13.98;;;7.20;;
75413;SDS011;64758;52.122;5.404;2023-05-14T06:34:31;13.50;;;7.60;;
75413;SDS011;64758;52.122;5.404;2023-05-14T06:36:57;12.13;;;6.80;;
75413;SDS011;64758;52.122;5.404;2023-05-14T06:39:24;11.73;;;7.32;;
75413;SDS011;64758;52.122;5.404;2023-05-14T06:41:51;10.93;;;7.27;;
75413;SDS011;64758;52.122;5.404;2023-05-14T06:44:17;10.90;;;6.80;;
75413;SDS011;64758;52.122;5.404;2023-05-14T06:46:44;13.48;;;7.32;;
75413;SDS011;64758;52.122;5.404;2023-05-14T06:49:11;12.18;;;6.72;;
75413;SDS011;64758;52.122;5.404;2023-05-14T06:51:37;11.60;;;6.75;;
75413;SDS011;64758;52.122;5.404;2023-05-14T06:54:04;12.93;;;7.33;;
75413;SDS011;64758;52.122;5.404;2023-05-14T06:56:30;11.73;;;7.43;;
75413;SDS011;64758;52.122;5.404;2023-05-14T06:58:57;10.25;;;7.40;;
75413;SDS011;64758;52.122;5.404;2023-05-14T07:01:23;12.60;;;7.53;;
75413;SDS011;64758;52.122;5.404;2023-05-14T07:03:50;13.43;;;7.63;;
75413;SDS011;64758;52.122;5.404;2023-05-14T07:06:16;15.40;;;6.87;;
75413;SDS011;64758;52.122;5.404;2023-05-14T07:08:43;14.98;;;6.78;;
75413;SDS011;64758;52.122;5.404;2023-05-14T07:11:12;11.27;;;7.25;;
75413;SDS011;64758;52.122;5.404;2023-05-14T07:13:39;11.95;;;7.13;;
75413;SDS011;64758;52.122;5.404;2023-05-14T07:16:07;11.82;;;6.50;;
75413;SDS011;64758;52.122;5.404;2023-05-14T07:18:36;14.03;;;7.27;;
75413;SDS011;64758;52.122;5.404;2023-05-14T07:21:03;12.20;;;6.88;;
75413;SDS011;64758;52.122;5.404;2023-05-14T07:23:32;10.88;;;7.18;;
75413;SDS011;64758;52.122;5.404;2023-05-14T07:26:01;14.13;;;7.03;;
75413;SDS011;64758;52.122;5.404;2023-05-14T07:28:28;11.50;;;6.68;;
75413;SDS011;64758;52.122;5.404;2023-05-14T07:30:54;13.00;;;7.50;;
75413;SDS011;64758;52.122;5.404;2023-05-14T07:33:21;10.85;;;7.10;;
75413;SDS011;64758;52.122;5.404;2023-05-14T07:35:48;10.77;;;7.20;;
75413;SDS011;64758;52.122;5.404;2023-05-14T07:38:15;11.38;;;6.75;;
75413;SDS011;64758;52.122;5.404;2023-05-14T07:40:42;12.45;;;7.55;;
75413;SDS011;64758;52.122;5.404;2023-05-14T07:43:09;11.23;;;7.27;;
75413;SDS011;64758;52.122;5.404;2023-05-14T07:45:36;14.15;;;8.05;;
75413;SDS011;64758;52.122;5.404;2023-05-14T07:48:04;11.93;;;8.40;;
75413;SDS011;64758;52.122;5.404;2023-05-14T07:50:31;11.50;;;7.80;;
75413;SDS011;64758;52.122;5.404;2023-05-14T07:52:57;14.43;;;8.02;;
75413;SDS011;64758;52.122;5.404;2023-05-14T07:55:24;13.57;;;9.53;;
75413;SDS011;64758;52.122;5.404;2023-05-14T07:57:51;14.50;;;9.32;;
75413;SDS011;64758;52.122;5.404;2023-05-14T08:00:17;13.95;;;8.90;;
75413;SDS011;64758;52.122;5.404;2023-05-14T08:02:44;14.00;;;8.65;;
75413;SDS011;64758;52.122;5.404;2023-05-14T08:05:11;10.15;;;8.48;;
75413;SDS011;64758;52.122;5.404;2023-05-14T08:07:37;13.60;;;8.03;;
75413;SDS011;64758;52.122;5.404;2023-05-14T08:10:04;14.45;;;8.70;;
75413;SDS011;64758;52.122;5.404;2023-05-14T08:12:32;12.02;;;8.68;;
75413;SDS011;64758;52.122;5.404;2023-05-14T08:14:59;12.60;;;8.32;;
75413;SDS011;64758;52.122;5.404;2023-05-14T08:17:26;16.30;;;9.23;;
75413;SDS011;64758;52.122;5.404;2023-05-14T08:19:52;11.13;;;8.90;;
75413;SDS011;64758;52.122;5.404;2023-05-14T08:22:19;15.80;;;9.52;;
75413;SDS011;64758;52.122;5.404;2023-05-14T08:24:45;12.65;;;9.90;;
75413;SDS011;64758;52.122;5.404;2023-05-14T08:27:12;12.55;;;9.30;;
75413;SDS011;64758;52.122;5.404;2023-05-14T08:29:38;11.45;;;7.97;;
75413;SDS011;64758;52.122;5.404;2023-05-14T08:32:05;11.93;;;8.07;;
75413;SDS011;64758;52.122;5.404;2023-05-14T08:34:44;9.57;;;8.30;;
75413;SDS011;64758;52.122;5.404;2023-05-14T08:37:11;12.07;;;8.75;;
75413;SDS011;64758;52.122;5.404;2023-05-14T08:39:37;12.00;;;8.40;;
75413;SDS011;64758;52.122;5.404;2023-05-14T08:42:05;12.30;;;8.82;;
75413;SDS011;64758;52.122;5.404;2023-05-14T08:47:04;12.82;;;7.93;;
75413;SDS011;64758;52.122;5.404;2023-05-14T08:52:07;11.43;;;7.50;;
75413;SDS011;64758;52.122;5.404;2023-05-14T08:54:35;11.98;;;8.35;;
75413;SDS011;64758;52.122;5.404;2023-05-14T08:57:05;13.93;;;8.37;;
75413;SDS011;64758;52.122;5.404;2023-05-14T08:59:36;11.65;;;7.60;;
75413;SDS011;64758;52.122;5.404;2023-05-14T09:02:03;11.93;;;7.55;;
75413;SDS011;64758;52.122;5.404;2023-05-14T09:04:31;12.07;;;7.25;;
75413;SDS011;64758;52.122;5.404;2023-05-14T09:07:00;11.18;;;7.95;;
75413;SDS011;64758;52.122;5.404;2023-05-14T09:09:27;11.83;;;6.83;;
75413;SDS011;64758;52.122;5.404;2023-05-14T09:11:54;12.48;;;8.13;;
75413;SDS011;64758;52.122;5.404;2023-05-14T09:14:21;8.35;;;7.15;;
75413;SDS011;64758;52.122;5.404;2023-05-14T09:16:49;10.40;;;7.03;;
75413;SDS011;64758;52.122;5.404;2023-05-14T09:19:16;8.20;;;7.20;;
75413;SDS011;64758;52.122;5.404;2023-05-14T09:21:47;10.93;;;7.60;;
75413;SDS011;64758;52.122;5.404;2023-05-14T09:24:21;14.63;;;8.38;;
75413;SDS011;64758;52.122;5.404;2023-05-14T09:26:52;11.27;;;7.47;;
75413;SDS011;64758;52.122;5.404;2023-05-14T09:29:19;10.85;;;7.00;;
75413;SDS011;64758;52.122;5.404;2023-05-14T09:31:46;11.95;;;7.18;;
75413;SDS011;64758;52.122;5.404;2023-05-14T09:34:24;11.80;;;7.00;;
75413;SDS011;64758;52.122;5.404;2023-05-14T09:36:56;10.23;;;7.72;;
75413;SDS011;64758;52.122;5.404;2023-05-14T09:39:27;8.50;;;7.00;;
75413;SDS011;64758;52.122;5.404;2023-05-14T09:41:54;12.13;;;7.03;;
75413;SDS011;64758;52.122;5.404;2023-05-14T09:44:22;11.77;;;7.55;;
75413;SDS011;64758;52.122;5.404;2023-05-14T09:46:49;9.33;;;7.17;;
75413;SDS011;64758;52.122;5.404;2023-05-14T09:49:17;9.48;;;6.78;;
75413;SDS011;64758;52.122;5.404;2023-05-14T09:51:43;9.65;;;7.00;;
75413;SDS011;64758;52.122;5.404;2023-05-14T09:54:10;11.93;;;7.15;;
75413;SDS011;64758;52.122;5.404;2023-05-14T09:56:37;10.77;;;7.65;;
75413;SDS011;64758;52.122;5.404;2023-05-14T09:59:04;8.60;;;6.70;;
75413;SDS011;64758;52.122;5.404;2023-05-14T10:01:31;12.35;;;6.75;;
75413;SDS011;64758;52.122;5.404;2023-05-14T10:03:58;12.43;;;6.88;;
75413;SDS011;64758;52.122;5.404;2023-05-14T10:06:30;11.10;;;7.15;;
75413;SDS011;64758;52.122;5.404;2023-05-14T10:09:09;11.18;;;7.13;;
75413;SDS011;64758;52.122;5.404;2023-05-14T10:11:39;10.40;;;7.30;;
75413;SDS011;64758;52.122;5.404;2023-05-14T10:14:17;12.45;;;7.68;;
75413;SDS011;64758;52.122;5.404;2023-05-14T10:17:11;9.55;;;6.75;;
75413;SDS011;64758;52.122;5.404;2023-05-14T10:19:49;13.23;;;7.18;;
75413;SDS011;64758;52.122;5.404;2023-05-14T10:22:21;7.30;;;6.47;;
75413;SDS011;64758;52.122;5.404;2023-05-14T10:24:48;15.30;;;8.10;;
75413;SDS011;64758;52.122;5.404;2023-05-14T10:27:19;11.43;;;7.90;;
75413;SDS011;64758;52.122;5.404;2023-05-14T10:29:53;8.85;;;6.70;;
75413;SDS011;64758;52.122;5.404;2023-05-14T10:32:21;13.02;;;7.00;;
75413;SDS011;64758;52.122;5.404;2023-05-14T10:34:53;11.43;;;6.55;;
75413;SDS011;64758;52.122;5.404;2023-05-14T10:37:21;10.83;;;6.93;;
75413;SDS011;64758;52.122;5.404;2023-05-14T10:39:51;9.65;;;6.82;;
75413;SDS011;64758;52.122;5.404;2023-05-14T10:42:30;11.27;;;7.47;;
75413;SDS011;64758;52.122;5.404;2023-05-14T10:45:01;10.57;;;6.40;;
75413;SDS011;64758;52.122;5.404;2023-05-14T10:47:35;7.10;;;6.30;;
75413;SDS011;64758;52.122;5.404;2023-05-14T10:50:04;12.73;;;6.53;;
75413;SDS011;64758;52.122;5.404;2023-05-14T10:52:32;10.05;;;6.47;;
75413;SDS011;64758;52.122;5.404;2023-05-14T10:55:00;9.10;;;7.15;;
75413;SDS011;64758;52.122;5.404;2023-05-14T10:57:29;8.50;;;6.10;;
75413;SDS011;64758;52.122;5.404;2023-05-14T10:59:58;9.82;;;6.40;;
75413;SDS011;64758;52.122;5.404;2023-05-14T11:02:26;8.27;;;6.40;;
75413;SDS011;64758;52.122;5.404;2023-05-14T11:04:56;8.35;;;6.22;;
75413;SDS011;64758;52.122;5.404;2023-05-14T11:07:33;7.38;;;5.70;;
75413;SDS011;64758;52.122;5.404;2023-05-14T11:10:02;9.35;;;5.93;;
75413;SDS011;64758;52.122;5.404;2023-05-14T11:12:29;8.55;;;6.07;;
75413;SDS011;64758;52.122;5.404;2023-05-14T11:14:56;9.43;;;5.47;;
75413;SDS011;64758;52.122;5.404;2023-05-14T11:17:25;6.20;;;5.60;;
75413;SDS011;64758;52.122;5.404;2023-05-14T11:19:52;8.23;;;5.60;;
75413;SDS011;64758;52.122;5.404;2023-05-14T11:22:19;8.93;;;5.85;;
75413;SDS011;64758;52.122;5.404;2023-05-14T11:24:46;7.85;;;5.40;;
75413;SDS011;64758;52.122;5.404;2023-05-14T11:27:12;6.07;;;5.00;;
75413;SDS011;64758;52.122;5.404;2023-05-14T11:29:42;9.43;;;6.35;;
75413;SDS011;64758;52.122;5.404;2023-05-14T11:32:11;9.68;;;5.47;;
75413;SDS011;64758;52.122;5.404;2023-05-14T11:34:38;8.55;;;6.10;;
75413;SDS011;64758;52.122;5.404;2023-05-14T11:37:06;9.23;;;5.72;;
75413;SDS011;64758;52.122;5.404;2023-05-14T11:39:34;11.97;;;5.90;;
75413;SDS011;64758;52.122;5.404;2023-05-14T11:42:03;8.45;;;5.75;;
75413;SDS011;64758;52.122;5.404;2023-05-14T11:44:31;10.57;;;6.85;;
75413;SDS011;64758;52.122;5.404;2023-05-14T11:46:58;7.93;;;5.35;;
75413;SDS011;64758;52.122;5.404;2023-05-14T11:49:26;10.80;;;6.00;;
75413;SDS011;64758;52.122;5.404;2023-05-14T11:52:01;8.27;;;5.10;;
75413;SDS011;64758;52.122;5.404;2023-05-14T11:54:32;10.77;;;5.40;;
75413;SDS011;64758;52.122;5.404;2023-05-14T11:57:00;9.65;;;5.78;;
75413;SDS011;64758;52.122;5.404;2023-05-14T11:59:30;9.77;;;5.20;;
75413;SDS011;64758;52.122;5.404;2023-05-14T12:01:57;6.40;;;5.50;;
75413;SDS011;64758;52.122;5.404;2023-05-14T12:04:24;7.70;;;5.20;;
75413;SDS011;64758;52.122;5.404;2023-05-14T12:06:51;7.78;;;5.63;;
75413;SDS011;64758;52.122;5.404;2023-05-14T12:09:18;10.10;;;5.18;;
75413;SDS011;64758;52.122;5.404;2023-05-14T12:11:46;11.77;;;5.90;;
75413;SDS011;64758;52.122;5.404;2023-05-14T12:14:18;9.00;;;5.95;;
75413;SDS011;64758;52.122;5.404;2023-05-14T12:16:46;7.63;;;5.30;;
75413;SDS011;64758;52.122;5.404;2023-05-14T12:19:14;8.32;;;4.75;;
75413;SDS011;64758;52.122;5.404;2023-05-14T12:21:42;9.55;;;5.47;;
75413;SDS011;64758;52.122;5.404;2023-05-14T12:24:09;8.38;;;5.60;;
75413;SDS011;64758;52.122;5.404;2023-05-14T12:26:37;9.55;;;5.43;;
75413;SDS011;64758;52.122;5.404;2023-05-14T12:29:04;7.87;;;5.07;;
75413;SDS011;64758;52.122;5.404;2023-05-14T12:31:34;9.20;;;4.65;;
75413;SDS011;64758;52.122;5.404;2023-05-14T12:34:02;7.65;;;4.93;;
75413;SDS011;64758;52.122;5.404;2023-05-14T12:36:29;10.10;;;4.93;;
75413;SDS011;64758;52.122;5.404;2023-05-14T12:39:01;10.45;;;5.47;;
75413;SDS011;64758;52.122;5.404;2023-05-14T12:41:29;6.67;;;4.47;;
75413;SDS011;64758;52.122;5.404;2023-05-14T12:43:56;8.70;;;5.10;;
75413;SDS011;64758;52.122;5.404;2023-05-14T12:46:24;8.55;;;5.55;;
75413;SDS011;64758;52.122;5.404;2023-05-14T12:48:52;11.50;;;5.60;;
75413;SDS011;64758;52.122;5.404;2023-05-14T12:51:19;8.10;;;5.15;;
75413;SDS011;64758;52.122;5.404;2023-05-14T12:53:46;8.90;;;5.13;;
75413;SDS011;64758;52.122;5.404;2023-05-14T12:56:13;9.70;;;5.50;;
75413;SDS011;64758;52.122;5.404;2023-05-14T12:58:40;7.30;;;4.53;;
75413;SDS011;64758;52.122;5.404;2023-05-14T13:01:07;7.63;;;5.53;;
75413;SDS011;64758;52.122;5.404;2023-05-14T13:03:33;7.53;;;5.45;;
75413;SDS011;64758;52.122;5.404;2023-05-14T13:06:00;9.00;;;5.00;;
75413;SDS011;64758;52.122;5.404;2023-05-14T13:08:26;10.32;;;5.55;;
75413;SDS011;64758;52.122;5.404;2023-05-14T13:10:53;9.73;;;5.75;;
75413;SDS011;64758;52.122;5.404;2023-05-14T13:13:21;9.48;;;5.35;;
75413;SDS011;64758;52.122;5.404;2023-05-14T13:15:48;9.02;;;5.25;;
75413;SDS011;64758;52.122;5.404;2023-05-14T13:18:16;12.70;;;5.73;;
75413;SDS011;64758;52.122;5.404;2023-05-14T13:20:43;7.82;;;6.45;;
75413;SDS011;64758;52.122;5.404;2023-05-14T13:23:12;8.63;;;5.50;;
75413;SDS011;64758;52.122;5.404;2023-05-14T13:25:39;9.25;;;5.60;;
75413;SDS011;64758;52.122;5.404;2023-05-14T13:28:07;7.10;;;5.03;;
75413;SDS011;64758;52.122;5.404;2023-05-14T13:30:33;7.90;;;5.03;;
75413;SDS011;64758;52.122;5.404;2023-05-14T13:33:00;10.98;;;5.00;;
75413;SDS011;64758;52.122;5.404;2023-05-14T13:35:26;9.07;;;4.80;;
75413;SDS011;64758;52.122;5.404;2023-05-14T13:37:53;6.55;;;4.22;;
75413;SDS011;64758;52.122;5.404;2023-05-14T13:40:19;11.48;;;4.80;;
75413;SDS011;64758;52.122;5.404;2023-05-14T13:42:46;8.33;;;4.83;;
75413;SDS011;64758;52.122;5.404;2023-05-14T13:45:12;8.73;;;4.45;;
75413;SDS011;64758;52.122;5.404;2023-05-14T13:47:39;8.63;;;4.78;;
75413;SDS011;64758;52.122;5.404;2023-05-14T13:50:06;7.63;;;5.00;;
75413;SDS011;64758;52.122;5.404;2023-05-14T13:52:33;9.15;;;5.32;;
75413;SDS011;64758;52.122;5.404;2023-05-14T13:54:59;8.57;;;4.77;;
75413;SDS011;64758;52.122;5.404;2023-05-14T13:57:26;10.07;;;5.38;;
75413;SDS011;64758;52.122;5.404;2023-05-14T13:59:53;6.18;;;4.30;;
75413;SDS011;64758;52.122;5.404;2023-05-14T14:02:19;8.23;;;4.13;;
75413;SDS011;64758;52.122;5.404;2023-05-14T14:04:46;9.77;;;4.97;;
75413;SDS011;64758;52.122;5.404;2023-05-14T14:07:12;7.23;;;4.47;;
75413;SDS011;64758;52.122;5.404;2023-05-14T14:09:39;7.05;;;4.93;;
75413;SDS011;64758;52.122;5.404;2023-05-14T14:12:06;9.25;;;4.70;;
75413;SDS011;64758;52.122;5.404;2023-05-14T14:14:34;8.80;;;4.90;;
75413;SDS011;64758;52.122;5.404;2023-05-14T14:17:00;8.23;;;4.63;;
75413;SDS011;64758;52.122;5.404;2023-05-14T14:19:27;10.17;;;4.53;;
75413;SDS011;64758;52.122;5.404;2023-05-14T14:21:53;7.43;;;4.57;;
75413;SDS011;64758;52.122;5.404;2023-05-14T14:24:20;5.90;;;3.53;;
75413;SDS011;64758;52.122;5.404;2023-05-14T14:26:46;6.00;;;3.63;;
75413;SDS011;64758;52.122;5.404;2023-05-14T14:29:13;6.15;;;4.07;;
75413;SDS011;64758;52.122;5.404;2023-05-14T14:31:39;6.63;;;3.93;;
75413;SDS011;64758;52.122;5.404;2023-05-14T14:34:06;6.22;;;4.20;;
75413;SDS011;64758;52.122;5.404;2023-05-14T14:36:33;5.90;;;3.95;;
75413;SDS011;64758;52.122;5.404;2023-05-14T14:38:59;6.60;;;4.10;;
75413;SDS011;64758;52.122;5.404;2023-05-14T14:41:26;7.07;;;4.20;;
75413;SDS011;64758;52.122;5.404;2023-05-14T14:43:52;7.70;;;4.30;;
75413;SDS011;64758;52.122;5.404;2023-05-14T14:46:19;7.00;;;4.30;;
75413;SDS011;64758;52.122;5.404;2023-05-14T14:48:45;4.38;;;3.92;;